Beacon, New York
Current Conditions -  °F | °C
As of 3:45 PM on Saturday 22 Nov 2014 (Local Time) from KSWF Reporting Station
Broken Clouds Broken Clouds  
Wind Chill: 34°   Ceiling: 8000
Heat Index: 41°   Visibility: 20mi
Dew Point: 10°   Wind: 12mph
Humidity: 29%   Direction: 200°SSW
Pressure: 30.22"   Gusts: 18mph
Location:  41.5°N, 73.97°W
Report Text: KSWF 222045Z 20010G16KT 20SM BKN080 05/M12 A3022
Loading
Personal Weather Stations






























Interactive Weather Map New forecast layout! Learn more

10-Day Weather Forecast

Advertisements
Track Severe Weather on mobile